sensor_id;sensor_type;location;lat;lon;timestamp;pressure;altitude;pressure_sealevel;temperature;humidity
8140;BME280;4111;50.972;7.072;2022-08-01T00:00:03;101086.75;;;23.77;86.47
8140;BME280;4111;50.972;7.072;2022-08-01T00:02:30;101086.25;;;23.75;86.07
8140;BME280;4111;50.972;7.072;2022-08-01T00:04:57;101088.88;;;23.63;86.28
8140;BME280;4111;50.972;7.072;2022-08-01T00:07:24;101087.28;;;23.44;86.39
8140;BME280;4111;50.972;7.072;2022-08-01T00:09:51;101085.78;;;23.29;87.06
8140;BME280;4111;50.972;7.072;2022-08-01T00:12:17;101087.56;;;23.16;87.26
8140;BME280;4111;50.972;7.072;2022-08-01T00:14:44;101093.84;;;23.00;87.07
8140;BME280;4111;50.972;7.072;2022-08-01T00:17:10;101101.97;;;22.87;87.37
8140;BME280;4111;50.972;7.072;2022-08-01T00:19:37;101095.31;;;22.97;87.29
8140;BME280;4111;50.972;7.072;2022-08-01T00:22:03;101098.31;;;23.09;85.99
8140;BME280;4111;50.972;7.072;2022-08-01T00:24:30;101102.19;;;23.08;84.69
8140;BME280;4111;50.972;7.072;2022-08-01T00:26:57;101093.44;;;23.15;84.83
8140;BME280;4111;50.972;7.072;2022-08-01T00:29:23;101105.81;;;23.17;85.04
8140;BME280;4111;50.972;7.072;2022-08-01T00:32:10;101098.00;;;23.20;84.09
8140;BME280;4111;50.972;7.072;2022-08-01T00:34:36;101096.03;;;23.11;84.40
8140;BME280;4111;50.972;7.072;2022-08-01T00:37:03;101102.97;;;22.91;85.02
8140;BME280;4111;50.972;7.072;2022-08-01T00:39:29;101096.56;;;22.73;86.13
8140;BME280;4111;50.972;7.072;2022-08-01T00:41:56;101086.75;;;22.67;87.04
8140;BME280;4111;50.972;7.072;2022-08-01T00:44:26;101090.72;;;22.44;88.50
8140;BME280;4111;50.972;7.072;2022-08-01T00:46:52;101085.13;;;22.35;89.40
8140;BME280;4111;50.972;7.072;2022-08-01T00:49:19;101095.41;;;22.34;90.18
8140;BME280;4111;50.972;7.072;2022-08-01T00:51:45;101094.00;;;22.46;90.77
8140;BME280;4111;50.972;7.072;2022-08-01T00:54:12;101088.38;;;22.68;90.02
8140;BME280;4111;50.972;7.072;2022-08-01T00:56:42;101097.06;;;22.84;90.32
8140;BME280;4111;50.972;7.072;2022-08-01T00:59:11;101086.72;;;23.07;88.97
8140;BME280;4111;50.972;7.072;2022-08-01T01:01:40;101096.03;;;23.11;88.74
8140;BME280;4111;50.972;7.072;2022-08-01T01:04:12;101102.53;;;23.15;88.19
8140;BME280;4111;50.972;7.072;2022-08-01T01:09:44;101087.94;;;22.75;88.75
8140;BME280;4111;50.972;7.072;2022-08-01T01:12:27;101097.78;;;22.58;89.18
8140;BME280;4111;50.972;7.072;2022-08-01T01:20:16;101094.31;;;22.44;91.95
8140;BME280;4111;50.972;7.072;2022-08-01T01:28:12;101101.59;;;22.80;90.36
8140;BME280;4111;50.972;7.072;2022-08-01T01:30:43;101096.25;;;22.84;89.92
8140;BME280;4111;50.972;7.072;2022-08-01T01:33:12;101100.81;;;22.80;89.31
8140;BME280;4111;50.972;7.072;2022-08-01T01:35:46;101097.06;;;22.84;89.35
8140;BME280;4111;50.972;7.072;2022-08-01T01:38:22;101099.94;;;22.62;88.96
8140;BME280;4111;50.972;7.072;2022-08-01T01:40:51;101095.78;;;22.42;88.74
8140;BME280;4111;50.972;7.072;2022-08-01T01:43:18;101100.44;;;22.32;89.82
8140;BME280;4111;50.972;7.072;2022-08-01T01:45:54;101096.72;;;22.14;90.50
8140;BME280;4111;50.972;7.072;2022-08-01T01:48:22;101105.78;;;22.06;91.04
8140;BME280;4111;50.972;7.072;2022-08-01T01:50:51;101098.94;;;22.26;91.58
8140;BME280;4111;50.972;7.072;2022-08-01T01:53:20;101099.81;;;22.35;90.81
8140;BME280;4111;50.972;7.072;2022-08-01T01:55:50;101092.22;;;22.50;89.83
8140;BME280;4111;50.972;7.072;2022-08-01T01:58:19;101097.47;;;22.60;89.58
8140;BME280;4111;50.972;7.072;2022-08-01T02:00:47;101102.88;;;22.65;89.36
8140;BME280;4111;50.972;7.072;2022-08-01T02:03:16;101108.25;;;22.70;88.99
8140;BME280;4111;50.972;7.072;2022-08-01T02:05:43;101105.97;;;22.72;88.75
8140;BME280;4111;50.972;7.072;2022-08-01T02:08:11;101100.25;;;22.69;89.08
8140;BME280;4111;50.972;7.072;2022-08-01T02:10:41;101097.75;;;22.50;89.07
8140;BME280;4111;50.972;7.072;2022-08-01T02:13:08;101101.75;;;22.35;89.48
8140;BME280;4111;50.972;7.072;2022-08-01T02:15:36;101098.94;;;22.26;89.47
8140;BME280;4111;50.972;7.072;2022-08-01T02:18:25;101096.53;;;22.11;90.31
8140;BME280;4111;50.972;7.072;2022-08-01T02:20:54;101092.72;;;21.98;90.38
8140;BME280;4111;50.972;7.072;2022-08-01T02:23:22;101095.91;;;21.91;90.95
8140;BME280;4111;50.972;7.072;2022-08-01T02:25:53;101094.00;;;22.23;90.81
8140;BME280;4111;50.972;7.072;2022-08-01T02:28:43;101093.50;;;22.44;90.10
8140;BME280;4111;50.972;7.072;2022-08-01T02:31:13;101094.50;;;22.48;89.68
8140;BME280;4111;50.972;7.072;2022-08-01T02:33:45;101089.28;;;22.55;88.95
8140;BME280;4111;50.972;7.072;2022-08-01T02:36:12;101096.00;;;22.63;88.47
8140;BME280;4111;50.972;7.072;2022-08-01T02:39:01;101100.41;;;22.64;88.07
8140;BME280;4111;50.972;7.072;2022-08-01T02:41:30;101093.28;;;22.71;87.94
8140;BME280;4111;50.972;7.072;2022-08-01T02:44:02;101091.31;;;22.63;87.71
8140;BME280;4111;50.972;7.072;2022-08-01T02:46:34;101089.41;;;22.41;88.01
8140;BME280;4111;50.972;7.072;2022-08-01T02:49:02;101080.06;;;22.28;88.20
8140;BME280;4111;50.972;7.072;2022-08-01T02:51:30;101084.34;;;22.12;88.55
8140;BME280;4111;50.972;7.072;2022-08-01T02:53:58;101085.25;;;21.98;88.92
8140;BME280;4111;50.972;7.072;2022-08-01T02:56:27;101079.13;;;21.88;89.44
8140;BME280;4111;50.972;7.072;2022-08-01T02:59:07;101087.00;;;21.94;89.73
8140;BME280;4111;50.972;7.072;2022-08-01T03:01:34;101085.84;;;21.95;90.97
8140;BME280;4111;50.972;7.072;2022-08-01T03:04:04;101086.84;;;22.22;91.28
8140;BME280;4111;50.972;7.072;2022-08-01T03:06:32;101084.22;;;22.48;90.15
8140;BME280;4111;50.972;7.072;2022-08-01T03:09:02;101086.72;;;22.58;89.82
8140;BME280;4111;50.972;7.072;2022-08-01T03:11:30;101082.50;;;22.61;88.52
8140;BME280;4111;50.972;7.072;2022-08-01T03:14:01;101086.72;;;22.58;88.42
8140;BME280;4111;50.972;7.072;2022-08-01T03:16:30;101092.91;;;22.64;88.12
8140;BME280;4111;50.972;7.072;2022-08-01T03:18:58;101102.72;;;22.70;87.41
8140;BME280;4111;50.972;7.072;2022-08-01T03:21:28;101095.50;;;22.52;87.60
8140;BME280;4111;50.972;7.072;2022-08-01T03:23:57;101100.13;;;22.34;87.93
8140;BME280;4111;50.972;7.072;2022-08-01T03:26:30;101095.75;;;22.19;88.76
8140;BME280;4111;50.972;7.072;2022-08-01T03:29:02;101087.13;;;22.12;88.97
8140;BME280;4111;50.972;7.072;2022-08-01T03:31:36;101101.06;;;22.07;89.17
8140;BME280;4111;50.972;7.072;2022-08-01T03:34:05;101101.94;;;21.93;89.22
8140;BME280;4111;50.972;7.072;2022-08-01T03:36:33;101099.81;;;22.13;89.66
8140;BME280;4111;50.972;7.072;2022-08-01T03:39:03;101099.66;;;22.41;89.28
8140;BME280;4111;50.972;7.072;2022-08-01T03:41:38;101103.47;;;22.53;88.92
8140;BME280;4111;50.972;7.072;2022-08-01T03:44:09;101103.63;;;22.57;87.82
8140;BME280;4111;50.972;7.072;2022-08-01T03:46:43;101109.03;;;22.62;87.53
8140;BME280;4111;50.972;7.072;2022-08-01T03:49:14;101102.53;;;22.67;87.33
8140;BME280;4111;50.972;7.072;2022-08-01T03:51:45;101103.88;;;22.69;86.76
8140;BME280;4111;50.972;7.072;2022-08-01T03:54:16;101105.34;;;22.75;86.69
8140;BME280;4111;50.972;7.072;2022-08-01T03:56:44;101107.75;;;22.68;86.03
8140;BME280;4111;50.972;7.072;2022-08-01T03:59:14;101110.72;;;22.41;85.91
8140;BME280;4111;50.972;7.072;2022-08-01T04:01:43;101109.50;;;22.24;86.69
8140;BME280;4111;50.972;7.072;2022-08-01T04:04:10;101105.63;;;22.11;87.25
8140;BME280;4111;50.972;7.072;2022-08-01T04:06:38;101103.34;;;22.05;88.19
8140;BME280;4111;50.972;7.072;2022-08-01T04:09:06;101115.47;;;21.95;88.46
8140;BME280;4111;50.972;7.072;2022-08-01T04:11:39;101114.34;;;21.96;88.59
8140;BME280;4111;50.972;7.072;2022-08-01T04:14:06;101102.72;;;22.08;89.10
8140;BME280;4111;50.972;7.072;2022-08-01T04:16:35;101099.53;;;22.23;88.86
8140;BME280;4111;50.972;7.072;2022-08-01T04:19:01;101105.66;;;22.34;88.24
8140;BME280;4111;50.972;7.072;2022-08-01T04:21:30;101105.06;;;22.46;87.91
8140;BME280;4111;50.972;7.072;2022-08-01T04:24:01;101104.59;;;22.52;86.95
8140;BME280;4111;50.972;7.072;2022-08-01T04:26:32;101116.13;;;22.46;86.65
8140;BME280;4111;50.972;7.072;2022-08-01T04:29:02;101108.94;;;22.45;86.82
8140;BME280;4111;50.972;7.072;2022-08-01T04:31:31;101105.56;;;22.48;86.49
8140;BME280;4111;50.972;7.072;2022-08-01T04:33:59;101116.94;;;22.46;86.33
8140;BME280;4111;50.972;7.072;2022-08-01T04:36:28;101119.91;;;22.58;86.32
8140;BME280;4111;50.972;7.072;2022-08-01T04:38:59;101114.19;;;22.55;85.82
8140;BME280;4111;50.972;7.072;2022-08-01T04:41:27;101120.22;;;22.57;85.93
8140;BME280;4111;50.972;7.072;2022-08-01T04:43:56;101120.75;;;22.59;86.26
8140;BME280;4111;50.972;7.072;2022-08-01T04:46:27;101128.88;;;22.55;86.63
8140;BME280;4111;50.972;7.072;2022-08-01T04:48:54;101128.97;;;22.42;86.23
8140;BME280;4111;50.972;7.072;2022-08-01T04:51:21;101127.41;;;22.27;87.17
8140;BME280;4111;50.972;7.072;2022-08-01T04:53:48;101129.47;;;22.21;88.01
8140;BME280;4111;50.972;7.072;2022-08-01T04:56:18;101131.38;;;22.12;88.49
8140;BME280;4111;50.972;7.072;2022-08-01T04:58:45;101140.91;;;22.06;88.32
8140;BME280;4111;50.972;7.072;2022-08-01T05:01:11;101146.06;;;21.98;88.55
8140;BME280;4111;50.972;7.072;2022-08-01T05:03:38;101138.59;;;21.99;89.12
8140;BME280;4111;50.972;7.072;2022-08-01T05:06:05;101135.63;;;22.18;89.65
8140;BME280;4111;50.972;7.072;2022-08-01T05:08:31;101142.78;;;22.19;88.91
8140;BME280;4111;50.972;7.072;2022-08-01T05:10:57;101146.31;;;22.11;88.82
8140;BME280;4111;50.972;7.072;2022-08-01T05:13:24;101142.03;;;22.05;89.09
8140;BME280;4111;50.972;7.072;2022-08-01T05:15:51;101136.97;;;21.98;89.40
8140;BME280;4111;50.972;7.072;2022-08-01T05:18:18;101142.66;;;22.02;89.88
8140;BME280;4111;50.972;7.072;2022-08-01T05:20:53;101134.25;;;22.07;89.92
8140;BME280;4111;50.972;7.072;2022-08-01T05:23:20;101138.66;;;22.08;89.88
8140;BME280;4111;50.972;7.072;2022-08-01T05:26:06;101133.88;;;21.99;90.58
8140;BME280;4111;50.972;7.072;2022-08-01T05:28:34;101144.75;;;21.96;90.40
8140;BME280;4111;50.972;7.072;2022-08-01T05:31:01;101143.41;;;21.93;90.69
8140;BME280;4111;50.972;7.072;2022-08-01T05:33:27;101147.13;;;21.89;90.34
8140;BME280;4111;50.972;7.072;2022-08-01T05:35:54;101145.47;;;21.88;90.26
8140;BME280;4111;50.972;7.072;2022-08-01T05:38:20;101147.84;;;21.94;90.72
8140;BME280;4111;50.972;7.072;2022-08-01T05:40:47;101151.59;;;21.98;90.86
8140;BME280;4111;50.972;7.072;2022-08-01T05:43:14;101161.16;;;21.92;90.64
8140;BME280;4111;50.972;7.072;2022-08-01T05:45:40;101159.50;;;21.91;90.73
8140;BME280;4111;50.972;7.072;2022-08-01T05:48:07;101159.50;;;21.91;90.39
8140;BME280;4111;50.972;7.072;2022-08-01T05:50:34;101162.41;;;21.86;90.61
8140;BME280;4111;50.972;7.072;2022-08-01T05:53:01;101155.88;;;21.82;91.07
8140;BME280;4111;50.972;7.072;2022-08-01T05:55:27;101160.75;;;21.85;91.90
8140;BME280;4111;50.972;7.072;2022-08-01T05:57:54;101155.44;;;21.89;92.56
8140;BME280;4111;50.972;7.072;2022-08-01T06:00:20;101165.53;;;21.93;92.73
8140;BME280;4111;50.972;7.072;2022-08-01T06:02:47;101160.50;;;21.95;93.25
8140;BME280;4111;50.972;7.072;2022-08-01T06:05:13;101169.13;;;21.94;94.19
8140;BME280;4111;50.972;7.072;2022-08-01T06:07:40;101163.28;;;21.95;94.24
8140;BME280;4111;50.972;7.072;2022-08-01T06:10:08;101166.03;;;21.95;94.54
8140;BME280;4111;50.972;7.072;2022-08-01T06:12:35;101157.25;;;21.93;94.14
8140;BME280;4111;50.972;7.072;2022-08-01T06:15:05;101157.25;;;21.93;94.61
8140;BME280;4111;50.972;7.072;2022-08-01T06:17:34;101156.44;;;21.93;94.32
8140;BME280;4111;50.972;7.072;2022-08-01T06:20:02;101164.13;;;21.96;94.69
8140;BME280;4111;50.972;7.072;2022-08-01T06:22:28;101166.03;;;21.95;95.13
8140;BME280;4111;50.972;7.072;2022-08-01T06:24:56;101163.16;;;22.01;94.77
8140;BME280;4111;50.972;7.072;2022-08-01T06:27:22;101165.28;;;22.04;94.66
8140;BME280;4111;50.972;7.072;2022-08-01T06:29:51;101159.94;;;22.07;94.55
8140;BME280;4111;50.972;7.072;2022-08-01T06:32:23;101162.41;;;22.09;94.33
8140;BME280;4111;50.972;7.072;2022-08-01T06:34:53;101161.91;;;22.07;93.89
8140;BME280;4111;50.972;7.072;2022-08-01T06:37:20;101166.16;;;22.13;94.07
8140;BME280;4111;50.972;7.072;2022-08-01T06:39:47;101163.78;;;22.20;93.38
8140;BME280;4111;50.972;7.072;2022-08-01T06:42:15;101163.69;;;22.25;93.06
8140;BME280;4111;50.972;7.072;2022-08-01T06:44:42;101164.53;;;22.26;92.89
8140;BME280;4111;50.972;7.072;2022-08-01T06:47:11;101168.78;;;22.32;92.73
8140;BME280;4111;50.972;7.072;2022-08-01T06:49:38;101167.31;;;22.34;91.76
8140;BME280;4111;50.972;7.072;2022-08-01T06:52:04;101165.06;;;22.36;92.00
8140;BME280;4111;50.972;7.072;2022-08-01T06:54:31;101163.44;;;22.35;91.66
8140;BME280;4111;50.972;7.072;2022-08-01T06:56:57;101163.44;;;22.35;91.71
8140;BME280;4111;50.972;7.072;2022-08-01T06:59:24;101164.25;;;22.36;91.39
8140;BME280;4111;50.972;7.072;2022-08-01T07:01:51;101156.78;;;22.45;90.77
8140;BME280;4111;50.972;7.072;2022-08-01T07:04:17;101158.56;;;22.41;90.18
8140;BME280;4111;50.972;7.072;2022-08-01T07:06:43;101157.44;;;22.42;90.07
8140;BME280;4111;50.972;7.072;2022-08-01T07:09:10;101160.41;;;22.46;89.35
8140;BME280;4111;50.972;7.072;2022-08-01T07:11:40;101170.31;;;22.47;88.82
8140;BME280;4111;50.972;7.072;2022-08-01T07:14:07;101166.78;;;22.55;89.06
8140;BME280;4111;50.972;7.072;2022-08-01T07:16:33;101167.81;;;22.59;88.56
8140;BME280;4111;50.972;7.072;2022-08-01T07:19:00;101168.44;;;22.56;88.24
8140;BME280;4111;50.972;7.072;2022-08-01T07:21:26;101166.16;;;22.58;88.43
8140;BME280;4111;50.972;7.072;2022-08-01T07:24:07;101170.41;;;22.64;88.30
8140;BME280;4111;50.972;7.072;2022-08-01T07:26:44;101165.53;;;22.61;86.92
8140;BME280;4111;50.972;7.072;2022-08-01T07:29:23;101169.25;;;22.56;86.47
8140;BME280;4111;50.972;7.072;2022-08-01T07:31:55;101172.81;;;22.57;86.07
8140;BME280;4111;50.972;7.072;2022-08-01T07:34:23;101175.28;;;22.58;86.48
8140;BME280;4111;50.972;7.072;2022-08-01T07:36:51;101171.91;;;22.70;86.24
8140;BME280;4111;50.972;7.072;2022-08-01T07:39:18;101177.94;;;22.72;85.82
8140;BME280;4111;50.972;7.072;2022-08-01T07:41:44;101174.41;;;22.81;85.18
8140;BME280;4111;50.972;7.072;2022-08-01T07:44:31;101188.91;;;22.86;85.11
8140;BME280;4111;50.972;7.072;2022-08-01T07:46:57;101182.56;;;22.86;83.93
8140;BME280;4111;50.972;7.072;2022-08-01T07:49:24;101182.72;;;22.81;82.93
8140;BME280;4111;50.972;7.072;2022-08-01T07:51:51;101194.66;;;22.90;82.72
8140;BME280;4111;50.972;7.072;2022-08-01T07:54:29;101192.25;;;22.97;82.91
8140;BME280;4111;50.972;7.072;2022-08-01T07:56:59;101196.00;;;23.01;82.62
8140;BME280;4111;50.972;7.072;2022-08-01T07:59:26;101199.41;;;22.98;82.49
8140;BME280;4111;50.972;7.072;2022-08-01T08:01:52;101200.38;;;22.93;82.57
8140;BME280;4111;50.972;7.072;2022-08-01T08:04:19;101199.50;;;22.84;82.50
8140;BME280;4111;50.972;7.072;2022-08-01T08:06:46;101197.00;;;22.74;82.41
8140;BME280;4111;50.972;7.072;2022-08-01T08:09:14;101205.81;;;22.76;82.77
8140;BME280;4111;50.972;7.072;2022-08-01T08:11:43;101205.69;;;22.81;83.21
8140;BME280;4111;50.972;7.072;2022-08-01T08:14:13;101199.47;;;22.75;83.07
8140;BME280;4111;50.972;7.072;2022-08-01T08:16:40;101191.97;;;22.76;82.96
8140;BME280;4111;50.972;7.072;2022-08-01T08:19:07;101195.31;;;22.87;82.74
8140;BME280;4111;50.972;7.072;2022-08-01T08:21:33;101194.66;;;22.90;82.86
8140;BME280;4111;50.972;7.072;2022-08-01T08:24:00;101194.09;;;23.10;82.40
8140;BME280;4111;50.972;7.072;2022-08-01T08:26:53;101188.97;;;23.35;80.87
8140;BME280;4111;50.972;7.072;2022-08-01T08:29:21;101193.06;;;23.55;80.16
8140;BME280;4111;50.972;7.072;2022-08-01T08:31:48;101188.06;;;23.66;79.94
8140;BME280;4111;50.972;7.072;2022-08-01T08:34:18;101193.91;;;23.73;79.23
8140;BME280;4111;50.972;7.072;2022-08-01T08:36:44;101190.22;;;23.78;78.42
8140;BME280;4111;50.972;7.072;2022-08-01T08:39:13;101197.34;;;23.70;78.13
8140;BME280;4111;50.972;7.072;2022-08-01T08:41:42;101199.47;;;23.73;78.84
8140;BME280;4111;50.972;7.072;2022-08-01T08:44:14;101205.66;;;23.70;77.85
8140;BME280;4111;50.972;7.072;2022-08-01T08:46:44;101200.94;;;23.70;78.10
8140;BME280;4111;50.972;7.072;2022-08-01T08:49:15;101210.53;;;23.73;78.00
8140;BME280;4111;50.972;7.072;2022-08-01T08:51:43;101204.50;;;23.71;77.58
8140;BME280;4111;50.972;7.072;2022-08-01T08:54:14;101211.22;;;23.70;77.02
8140;BME280;4111;50.972;7.072;2022-08-01T08:56:42;101215.28;;;23.72;77.13
8140;BME280;4111;50.972;7.072;2022-08-01T08:59:11;101210.59;;;23.82;76.87
8140;BME280;4111;50.972;7.072;2022-08-01T09:01:40;101217.13;;;24.12;75.75
8140;BME280;4111;50.972;7.072;2022-08-01T09:04:08;101219.22;;;24.41;74.62
8140;BME280;4111;50.972;7.072;2022-08-01T09:06:35;101213.47;;;24.72;73.92
8140;BME280;4111;50.972;7.072;2022-08-01T09:09:03;101214.75;;;25.13;73.26
8140;BME280;4111;50.972;7.072;2022-08-01T09:11:30;101210.06;;;25.44;71.80
8140;BME280;4111;50.972;7.072;2022-08-01T09:14:05;101210.47;;;25.55;71.13
8140;BME280;4111;50.972;7.072;2022-08-01T09:16:33;101217.00;;;25.59;69.56
8140;BME280;4111;50.972;7.072;2022-08-01T09:19:13;101222.16;;;25.69;69.39
8140;BME280;4111;50.972;7.072;2022-08-01T09:22:01;101219.34;;;26.20;68.05
8140;BME280;4111;50.972;7.072;2022-08-01T09:24:31;101219.91;;;26.46;67.27
8140;BME280;4111;50.972;7.072;2022-08-01T09:26:59;101227.63;;;26.28;66.21
8140;BME280;4111;50.972;7.072;2022-08-01T09:29:30;101231.47;;;26.69;65.59
8140;BME280;4111;50.972;7.072;2022-08-01T09:32:05;101232.94;;;27.00;64.94
8140;BME280;4111;50.972;7.072;2022-08-01T09:34:33;101226.47;;;27.33;64.11
8140;BME280;4111;50.972;7.072;2022-08-01T09:37:02;101231.56;;;27.43;62.96
8140;BME280;4111;50.972;7.072;2022-08-01T09:39:36;101228.28;;;27.66;62.15
8140;BME280;4111;50.972;7.072;2022-08-01T09:42:25;101233.41;;;27.64;61.85
8140;BME280;4111;50.972;7.072;2022-08-01T09:44:54;101226.91;;;27.47;62.06
8140;BME280;4111;50.972;7.072;2022-08-01T09:47:21;101221.47;;;27.26;61.96
8140;BME280;4111;50.972;7.072;2022-08-01T09:49:55;101224.34;;;27.42;60.92
8140;BME280;4111;50.972;7.072;2022-08-01T09:52:25;101228.31;;;27.29;61.35
8140;BME280;4111;50.972;7.072;2022-08-01T09:55:05;101225.03;;;27.02;61.53
8140;BME280;4111;50.972;7.072;2022-08-01T09:57:32;101221.19;;;27.07;61.45
8140;BME280;4111;50.972;7.072;2022-08-01T10:00:00;101226.31;;;27.05;60.90
8140;BME280;4111;50.972;7.072;2022-08-01T10:02:31;101221.06;;;26.91;60.70
8140;BME280;4111;50.972;7.072;2022-08-01T10:05:00;101223.28;;;27.22;60.16
8140;BME280;4111;50.972;7.072;2022-08-01T10:07:33;101223.75;;;27.61;60.52
8140;BME280;4111;50.972;7.072;2022-08-01T10:10:13;101219.50;;;28.33;59.11
8140;BME280;4111;50.972;7.072;2022-08-01T10:12:43;101218.03;;;28.51;58.11
8140;BME280;4111;50.972;7.072;2022-08-01T10:15:16;101217.78;;;28.72;58.05
8140;BME280;4111;50.972;7.072;2022-08-01T10:18:05;101214.97;;;28.56;57.55
8140;BME280;4111;50.972;7.072;2022-08-01T10:20:50;101223.28;;;28.84;57.11
8140;BME280;4111;50.972;7.072;2022-08-01T10:23:17;101210.31;;;28.92;56.15
8140;BME280;4111;50.972;7.072;2022-08-01T10:25:46;101205.03;;;29.19;55.54
8140;BME280;4111;50.972;7.072;2022-08-01T10:28:14;101193.44;;;29.20;55.19
8140;BME280;4111;50.972;7.072;2022-08-01T10:30:49;101200.56;;;29.34;54.91
8140;BME280;4111;50.972;7.072;2022-08-01T10:33:21;101196.06;;;28.97;54.28
8140;BME280;4111;50.972;7.072;2022-08-01T10:36:08;101205.53;;;28.93;54.42
8140;BME280;4111;50.972;7.072;2022-08-01T10:38:36;101212.09;;;28.68;53.97
8140;BME280;4111;50.972;7.072;2022-08-01T10:41:04;101206.50;;;28.68;54.77
8140;BME280;4111;50.972;7.072;2022-08-01T10:43:34;101207.63;;;28.80;54.29
8140;BME280;4111;50.972;7.072;2022-08-01T10:46:03;101205.63;;;28.80;54.61
8140;BME280;4111;50.972;7.072;2022-08-01T10:48:41;101201.72;;;28.69;54.16
8140;BME280;4111;50.972;7.072;2022-08-01T10:51:09;101198.66;;;28.58;54.57
8140;BME280;4111;50.972;7.072;2022-08-01T10:53:50;101204.25;;;28.58;54.54
8140;BME280;4111;50.972;7.072;2022-08-01T10:56:23;101197.41;;;29.03;54.60
8140;BME280;4111;50.972;7.072;2022-08-01T10:59:01;101204.91;;;29.31;53.08
8140;BME280;4111;50.972;7.072;2022-08-01T11:01:37;101198.59;;;29.54;52.89
8140;BME280;4111;50.972;7.072;2022-08-01T11:04:13;101191.19;;;29.26;52.06
8140;BME280;4111;50.972;7.072;2022-08-01T11:06:54;101197.59;;;29.26;52.06
8140;BME280;4111;50.972;7.072;2022-08-01T11:09:44;101200.78;;;28.93;51.96
8140;BME280;4111;50.972;7.072;2022-08-01T11:12:18;101207.72;;;28.83;52.40
8140;BME280;4111;50.972;7.072;2022-08-01T11:17:31;101190.72;;;29.08;51.42
8140;BME280;4111;50.972;7.072;2022-08-01T11:20:08;101190.03;;;29.27;50.91
8140;BME280;4111;50.972;7.072;2022-08-01T11:28:25;101179.84;;;29.19;51.15
8140;BME280;4111;50.972;7.072;2022-08-01T11:38:43;101167.34;;;29.32;50.45
8140;BME280;4111;50.972;7.072;2022-08-01T11:46:59;101171.06;;;29.04;50.46
8140;BME280;4111;50.972;7.072;2022-08-01T11:54:39;101163.34;;;28.82;51.13
8140;BME280;4111;50.972;7.072;2022-08-01T11:57:14;101175.31;;;28.82;51.12
8140;BME280;4111;50.972;7.072;2022-08-01T11:59:52;101179.03;;;28.71;51.36
8140;BME280;4111;50.972;7.072;2022-08-01T12:02:33;101174.59;;;29.01;50.52
8140;BME280;4111;50.972;7.072;2022-08-01T12:05:11;101168.81;;;29.26;50.12
8140;BME280;4111;50.972;7.072;2022-08-01T12:07:40;101170.75;;;29.41;49.95
8140;BME280;4111;50.972;7.072;2022-08-01T12:10:12;101167.53;;;29.39;49.54
8140;BME280;4111;50.972;7.072;2022-08-01T12:12:47;101169.44;;;29.35;47.97
8140;BME280;4111;50.972;7.072;2022-08-01T12:15:15;101178.97;;;29.34;48.55
8140;BME280;4111;50.972;7.072;2022-08-01T12:17:46;101179.69;;;29.47;48.00
8140;BME280;4111;50.972;7.072;2022-08-01T12:20:26;101176.53;;;29.49;48.02
8140;BME280;4111;50.972;7.072;2022-08-01T12:23:01;101178.88;;;29.46;47.69
8140;BME280;4111;50.972;7.072;2022-08-01T12:25:28;101179.56;;;29.08;48.13
8140;BME280;4111;50.972;7.072;2022-08-01T12:27:59;101188.84;;;28.80;48.92
8140;BME280;4111;50.972;7.072;2022-08-01T12:30:26;101191.66;;;28.80;49.59
8140;BME280;4111;50.972;7.072;2022-08-01T12:32:53;101180.66;;;28.72;49.65
8140;BME280;4111;50.972;7.072;2022-08-01T12:35:24;101188.84;;;28.64;49.84
8140;BME280;4111;50.972;7.072;2022-08-01T12:37:56;101189.75;;;28.68;50.15
8140;BME280;4111;50.972;7.072;2022-08-01T12:40:32;101192.28;;;28.74;50.62
8140;BME280;4111;50.972;7.072;2022-08-01T12:43:05;101191.66;;;29.12;49.73
8140;BME280;4111;50.972;7.072;2022-08-01T12:45:39;101184.22;;;29.36;48.88
8140;BME280;4111;50.972;7.072;2022-08-01T12:48:20;101179.66;;;28.80;47.89
8140;BME280;4111;50.972;7.072;2022-08-01T12:50:48;101167.69;;;28.35;48.45
8140;BME280;4111;50.972;7.072;2022-08-01T12:53:15;101178.53;;;28.08;49.10
8140;BME280;4111;50.972;7.072;2022-08-01T12:55:50;101179.19;;;27.77;48.78
8140;BME280;4111;50.972;7.072;2022-08-01T12:58:32;101177.47;;;27.73;49.45
8140;BME280;4111;50.972;7.072;2022-08-01T13:01:04;101173.47;;;27.45;49.08
8140;BME280;4111;50.972;7.072;2022-08-01T13:03:31;101176.59;;;27.44;49.23
8140;BME280;4111;50.972;7.072;2022-08-01T13:05:59;101173.50;;;27.33;49.63
8140;BME280;4111;50.972;7.072;2022-08-01T13:08:31;101173.25;;;27.38;49.65
8140;BME280;4111;50.972;7.072;2022-08-01T13:11:06;101171.72;;;27.41;50.01
8140;BME280;4111;50.972;7.072;2022-08-01T13:13:43;101170.69;;;27.45;50.06
8140;BME280;4111;50.972;7.072;2022-08-01T13:16:11;101172.66;;;27.45;50.19
8140;BME280;4111;50.972;7.072;2022-08-01T13:18:56;101165.22;;;27.49;50.15
8140;BME280;4111;50.972;7.072;2022-08-01T13:21:24;101172.06;;;27.52;50.88
8140;BME280;4111;50.972;7.072;2022-08-01T13:26:50;101177.16;;;27.62;50.79
8140;BME280;4111;50.972;7.072;2022-08-01T13:29:19;101177.16;;;27.62;50.20
8140;BME280;4111;50.972;7.072;2022-08-01T13:31:47;101170.19;;;27.56;49.82
8140;BME280;4111;50.972;7.072;2022-08-01T13:34:14;101164.13;;;27.66;49.77
8140;BME280;4111;50.972;7.072;2022-08-01T13:36:41;101170.41;;;27.63;49.06
8140;BME280;4111;50.972;7.072;2022-08-01T13:39:14;101169.28;;;27.52;49.00
8140;BME280;4111;50.972;7.072;2022-08-01T13:41:59;101170.22;;;27.43;48.79
8140;BME280;4111;50.972;7.072;2022-08-01T13:44:26;101168.13;;;27.40;49.22
8140;BME280;4111;50.972;7.072;2022-08-01T13:46:53;101173.00;;;27.43;49.39
8140;BME280;4111;50.972;7.072;2022-08-01T13:49:20;101169.03;;;27.44;49.07
8140;BME280;4111;50.972;7.072;2022-08-01T13:51:48;101171.72;;;27.41;48.98
8140;BME280;4111;50.972;7.072;2022-08-01T13:54:17;101171.03;;;27.44;48.87
8140;BME280;4111;50.972;7.072;2022-08-01T13:56:44;101166.06;;;27.37;48.74
8140;BME280;4111;50.972;7.072;2022-08-01T13:59:11;101164.41;;;27.36;49.02
8140;BME280;4111;50.972;7.072;2022-08-01T14:01:37;101175.59;;;27.24;48.19
8140;BME280;4111;50.972;7.072;2022-08-01T14:04:04;101168.59;;;27.18;48.42
8140;BME280;4111;50.972;7.072;2022-08-01T14:06:31;101168.59;;;27.18;48.67
8140;BME280;4111;50.972;7.072;2022-08-01T14:08:58;101173.00;;;27.19;48.77